sensor_id;sensor_type;location;lat;lon;timestamp;temperature;humidity
19728;DHT22;10015;52.530;13.390;2023-10-19T00:00:55;8.50;99.90
19728;DHT22;10015;52.530;13.390;2023-10-19T00:03:25;8.60;99.90
19728;DHT22;10015;52.530;13.390;2023-10-19T00:05:55;8.60;99.90
19728;DHT22;10015;52.530;13.390;2023-10-19T00:08:21;8.60;99.90
19728;DHT22;10015;52.530;13.390;2023-10-19T00:10:53;8.60;99.90
19728;DHT22;10015;52.530;13.390;2023-10-19T00:13:31;8.50;99.90
19728;DHT22;10015;52.530;13.390;2023-10-19T00:15:57;8.50;99.90
19728;DHT22;10015;52.530;13.390;2023-10-19T00:18:24;8.50;99.90
19728;DHT22;10015;52.530;13.390;2023-10-19T00:20:52;8.60;99.90
19728;DHT22;10015;52.530;13.390;2023-10-19T00:23:22;8.60;99.90
19728;DHT22;10015;52.530;13.390;2023-10-19T00:25:59;8.70;99.90
19728;DHT22;10015;52.530;13.390;2023-10-19T00:28:26;8.60;99.90
19728;DHT22;10015;52.530;13.390;2023-10-19T00:30:55;8.70;99.90
19728;DHT22;10015;52.530;13.390;2023-10-19T00:33:29;8.80;99.90
19728;DHT22;10015;52.530;13.390;2023-10-19T00:36:00;8.80;99.90
19728;DHT22;10015;52.530;13.390;2023-10-19T00:38:37;8.80;99.90
19728;DHT22;10015;52.530;13.390;2023-10-19T00:41:24;8.70;99.90
19728;DHT22;10015;52.530;13.390;2023-10-19T00:43:58;8.70;99.90
19728;DHT22;10015;52.530;13.390;2023-10-19T00:46:37;8.70;99.90
19728;DHT22;10015;52.530;13.390;2023-10-19T00:49:16;8.60;99.90
19728;DHT22;10015;52.530;13.390;2023-10-19T00:51:48;8.50;99.90
19728;DHT22;10015;52.530;13.390;2023-10-19T00:54:30;8.50;99.90
19728;DHT22;10015;52.530;13.390;2023-10-19T00:57:00;8.50;99.90
19728;DHT22;10015;52.530;13.390;2023-10-19T00:59:32;8.50;99.90
19728;DHT22;10015;52.530;13.390;2023-10-19T01:02:04;8.40;99.90
19728;DHT22;10015;52.530;13.390;2023-10-19T01:04:55;8.40;99.90
19728;DHT22;10015;52.530;13.390;2023-10-19T01:07:23;8.60;99.90
19728;DHT22;10015;52.530;13.390;2023-10-19T01:09:58;8.50;99.90
19728;DHT22;10015;52.530;13.390;2023-10-19T01:12:26;8.50;99.90
19728;DHT22;10015;52.530;13.390;2023-10-19T01:15:16;8.60;99.90
19728;DHT22;10015;52.530;13.390;2023-10-19T01:17:48;8.60;99.90
19728;DHT22;10015;52.530;13.390;2023-10-19T01:20:21;8.60;99.90
19728;DHT22;10015;52.530;13.390;2023-10-19T01:22:53;8.70;99.90
19728;DHT22;10015;52.530;13.390;2023-10-19T01:25:22;8.50;99.90
19728;DHT22;10015;52.530;13.390;2023-10-19T01:28:06;8.40;99.90
19728;DHT22;10015;52.530;13.390;2023-10-19T01:30:36;8.50;99.90
19728;DHT22;10015;52.530;13.390;2023-10-19T01:33:05;8.50;99.90
19728;DHT22;10015;52.530;13.390;2023-10-19T01:35:42;8.50;99.90
19728;DHT22;10015;52.530;13.390;2023-10-19T01:38:30;8.50;99.90
19728;DHT22;10015;52.530;13.390;2023-10-19T01:40:57;8.50;99.90
19728;DHT22;10015;52.530;13.390;2023-10-19T01:43:30;8.40;99.90
19728;DHT22;10015;52.530;13.390;2023-10-19T01:45:57;8.40;99.90
19728;DHT22;10015;52.530;13.390;2023-10-19T01:48:28;8.40;99.90
19728;DHT22;10015;52.530;13.390;2023-10-19T01:51:03;8.30;99.90
19728;DHT22;10015;52.530;13.390;2023-10-19T01:53:34;8.30;99.90
19728;DHT22;10015;52.530;13.390;2023-10-19T01:56:02;8.40;99.90
19728;DHT22;10015;52.530;13.390;2023-10-19T01:58:32;8.40;99.90
19728;DHT22;10015;52.530;13.390;2023-10-19T02:01:09;8.40;99.90
19728;DHT22;10015;52.530;13.390;2023-10-19T02:03:41;8.40;99.90
19728;DHT22;10015;52.530;13.390;2023-10-19T02:06:09;8.30;99.90
19728;DHT22;10015;52.530;13.390;2023-10-19T02:08:54;8.30;99.90
19728;DHT22;10015;52.530;13.390;2023-10-19T02:11:26;8.20;99.90
19728;DHT22;10015;52.530;13.390;2023-10-19T02:13:57;8.20;99.90
19728;DHT22;10015;52.530;13.390;2023-10-19T02:16:26;8.20;99.90
19728;DHT22;10015;52.530;13.390;2023-10-19T02:18:55;8.30;99.90
19728;DHT22;10015;52.530;13.390;2023-10-19T02:21:22;8.30;99.90
19728;DHT22;10015;52.530;13.390;2023-10-19T02:23:48;8.20;99.90
19728;DHT22;10015;52.530;13.390;2023-10-19T02:26:17;8.20;99.90
19728;DHT22;10015;52.530;13.390;2023-10-19T02:28:49;8.20;99.90
19728;DHT22;10015;52.530;13.390;2023-10-19T02:31:19;8.20;99.90
19728;DHT22;10015;52.530;13.390;2023-10-19T02:33:49;8.30;99.90
19728;DHT22;10015;52.530;13.390;2023-10-19T02:36:25;8.20;99.90
19728;DHT22;10015;52.530;13.390;2023-10-19T02:39:02;8.30;99.90
19728;DHT22;10015;52.530;13.390;2023-10-19T02:41:35;8.40;99.90
19728;DHT22;10015;52.530;13.390;2023-10-19T02:44:02;8.40;99.90
19728;DHT22;10015;52.530;13.390;2023-10-19T02:46:28;8.40;99.90
19728;DHT22;10015;52.530;13.390;2023-10-19T02:48:55;8.40;99.90
19728;DHT22;10015;52.530;13.390;2023-10-19T02:51:21;8.30;99.90
19728;DHT22;10015;52.530;13.390;2023-10-19T02:53:47;8.40;99.90
19728;DHT22;10015;52.530;13.390;2023-10-19T02:56:14;8.40;99.90
19728;DHT22;10015;52.530;13.390;2023-10-19T02:58:46;8.40;99.90
19728;DHT22;10015;52.530;13.390;2023-10-19T03:01:20;8.40;99.90
19728;DHT22;10015;52.530;13.390;2023-10-19T03:03:56;8.40;99.90
19728;DHT22;10015;52.530;13.390;2023-10-19T03:06:29;8.40;99.90
19728;DHT22;10015;52.530;13.390;2023-10-19T03:09:04;8.30;99.90
19728;DHT22;10015;52.530;13.390;2023-10-19T03:11:31;8.30;99.90
19728;DHT22;10015;52.530;13.390;2023-10-19T03:14:00;8.30;99.90
19728;DHT22;10015;52.530;13.390;2023-10-19T03:16:30;8.30;99.90
19728;DHT22;10015;52.530;13.390;2023-10-19T03:18:56;8.30;99.90
19728;DHT22;10015;52.530;13.390;2023-10-19T03:21:22;8.40;99.90
19728;DHT22;10015;52.530;13.390;2023-10-19T03:23:58;8.40;99.90
19728;DHT22;10015;52.530;13.390;2023-10-19T03:26:28;8.40;99.90
19728;DHT22;10015;52.530;13.390;2023-10-19T03:28:57;8.40;99.90
19728;DHT22;10015;52.530;13.390;2023-10-19T03:31:28;8.40;99.90
19728;DHT22;10015;52.530;13.390;2023-10-19T03:33:55;8.40;99.90
19728;DHT22;10015;52.530;13.390;2023-10-19T03:36:22;8.40;99.90
19728;DHT22;10015;52.530;13.390;2023-10-19T03:38:49;8.40;99.90
19728;DHT22;10015;52.530;13.390;2023-10-19T03:41:18;8.40;99.90
19728;DHT22;10015;52.530;13.390;2023-10-19T03:43:48;8.30;99.90
19728;DHT22;10015;52.530;13.390;2023-10-19T03:46:15;8.30;99.90
19728;DHT22;10015;52.530;13.390;2023-10-19T03:49:10;8.30;99.90
19728;DHT22;10015;52.530;13.390;2023-10-19T03:51:39;8.20;99.90
19728;DHT22;10015;52.530;13.390;2023-10-19T03:54:06;8.20;99.90
19728;DHT22;10015;52.530;13.390;2023-10-19T03:56:49;8.30;99.90
19728;DHT22;10015;52.530;13.390;2023-10-19T03:59:17;8.30;99.90
19728;DHT22;10015;52.530;13.390;2023-10-19T04:01:43;8.30;99.90
19728;DHT22;10015;52.530;13.390;2023-10-19T04:04:10;8.30;99.90
19728;DHT22;10015;52.530;13.390;2023-10-19T04:06:36;8.30;99.90
19728;DHT22;10015;52.530;13.390;2023-10-19T04:09:05;8.40;99.90
19728;DHT22;10015;52.530;13.390;2023-10-19T04:11:35;8.30;99.90
19728;DHT22;10015;52.530;13.390;2023-10-19T04:14:16;8.30;99.90
19728;DHT22;10015;52.530;13.390;2023-10-19T04:16:43;8.30;99.90
19728;DHT22;10015;52.530;13.390;2023-10-19T04:19:10;8.20;99.90
19728;DHT22;10015;52.530;13.390;2023-10-19T04:21:36;8.30;99.90
19728;DHT22;10015;52.530;13.390;2023-10-19T04:24:08;8.20;99.90
19728;DHT22;10015;52.530;13.390;2023-10-19T04:26:35;8.20;99.90
19728;DHT22;10015;52.530;13.390;2023-10-19T04:29:05;8.20;99.90
19728;DHT22;10015;52.530;13.390;2023-10-19T04:31:37;8.20;99.90
19728;DHT22;10015;52.530;13.390;2023-10-19T04:34:06;8.30;99.90
19728;DHT22;10015;52.530;13.390;2023-10-19T04:36:35;8.40;99.90
19728;DHT22;10015;52.530;13.390;2023-10-19T04:39:01;8.30;99.90
19728;DHT22;10015;52.530;13.390;2023-10-19T04:41:28;8.20;99.90
19728;DHT22;10015;52.530;13.390;2023-10-19T04:43:54;8.30;99.90
19728;DHT22;10015;52.530;13.390;2023-10-19T04:46:20;8.20;99.90
19728;DHT22;10015;52.530;13.390;2023-10-19T04:48:46;8.20;99.90
19728;DHT22;10015;52.530;13.390;2023-10-19T04:51:12;8.10;99.90
19728;DHT22;10015;52.530;13.390;2023-10-19T04:53:38;8.10;99.90
19728;DHT22;10015;52.530;13.390;2023-10-19T04:56:05;8.10;99.90
19728;DHT22;10015;52.530;13.390;2023-10-19T04:58:31;8.00;99.90
19728;DHT22;10015;52.530;13.390;2023-10-19T05:00:57;8.10;99.90
19728;DHT22;10015;52.530;13.390;2023-10-19T05:03:25;8.10;99.90
19728;DHT22;10015;52.530;13.390;2023-10-19T05:05:51;8.00;99.90
19728;DHT22;10015;52.530;13.390;2023-10-19T05:08:17;7.90;99.90
19728;DHT22;10015;52.530;13.390;2023-10-19T05:10:43;7.90;99.90
19728;DHT22;10015;52.530;13.390;2023-10-19T05:13:09;7.80;99.90
19728;DHT22;10015;52.530;13.390;2023-10-19T05:15:35;7.90;99.90
19728;DHT22;10015;52.530;13.390;2023-10-19T05:18:02;7.90;99.90
19728;DHT22;10015;52.530;13.390;2023-10-19T05:20:28;7.80;99.90
19728;DHT22;10015;52.530;13.390;2023-10-19T05:22:54;7.80;99.90
19728;DHT22;10015;52.530;13.390;2023-10-19T05:25:20;7.90;99.90
19728;DHT22;10015;52.530;13.390;2023-10-19T05:27:46;8.00;99.90
19728;DHT22;10015;52.530;13.390;2023-10-19T05:30:12;7.90;99.90
19728;DHT22;10015;52.530;13.390;2023-10-19T05:32:38;7.90;99.90
19728;DHT22;10015;52.530;13.390;2023-10-19T05:35:04;7.90;99.90
19728;DHT22;10015;52.530;13.390;2023-10-19T05:37:31;7.90;99.90
19728;DHT22;10015;52.530;13.390;2023-10-19T05:39:57;7.90;99.90
19728;DHT22;10015;52.530;13.390;2023-10-19T05:42:24;7.90;99.90
19728;DHT22;10015;52.530;13.390;2023-10-19T05:44:50;7.90;99.90
19728;DHT22;10015;52.530;13.390;2023-10-19T05:47:17;8.00;99.90
19728;DHT22;10015;52.530;13.390;2023-10-19T05:49:43;8.10;99.90
19728;DHT22;10015;52.530;13.390;2023-10-19T05:52:09;8.10;99.90
19728;DHT22;10015;52.530;13.390;2023-10-19T05:54:36;8.20;99.90
19728;DHT22;10015;52.530;13.390;2023-10-19T05:57:03;8.20;99.90
19728;DHT22;10015;52.530;13.390;2023-10-19T05:59:34;8.10;99.90
19728;DHT22;10015;52.530;13.390;2023-10-19T06:02:00;8.00;99.90
19728;DHT22;10015;52.530;13.390;2023-10-19T06:04:25;8.00;99.90
19728;DHT22;10015;52.530;13.390;2023-10-19T06:06:51;8.10;99.90
19728;DHT22;10015;52.530;13.390;2023-10-19T06:09:17;8.10;99.90
19728;DHT22;10015;52.530;13.390;2023-10-19T06:11:45;7.90;99.90
19728;DHT22;10015;52.530;13.390;2023-10-19T06:14:11;8.00;99.90
19728;DHT22;10015;52.530;13.390;2023-10-19T06:16:39;8.00;99.90
19728;DHT22;10015;52.530;13.390;2023-10-19T06:19:05;7.90;99.90
19728;DHT22;10015;52.530;13.390;2023-10-19T06:21:31;8.00;99.90
19728;DHT22;10015;52.530;13.390;2023-10-19T06:23:58;8.00;99.90
19728;DHT22;10015;52.530;13.390;2023-10-19T06:26:24;7.90;99.90
19728;DHT22;10015;52.530;13.390;2023-10-19T06:28:50;7.90;99.90
19728;DHT22;10015;52.530;13.390;2023-10-19T06:31:16;7.80;99.90
19728;DHT22;10015;52.530;13.390;2023-10-19T06:33:42;7.80;99.90
19728;DHT22;10015;52.530;13.390;2023-10-19T06:36:09;7.90;99.90
19728;DHT22;10015;52.530;13.390;2023-10-19T06:38:35;7.90;99.90
19728;DHT22;10015;52.530;13.390;2023-10-19T06:41:14;7.90;99.90
19728;DHT22;10015;52.530;13.390;2023-10-19T06:43:40;7.90;99.90
19728;DHT22;10015;52.530;13.390;2023-10-19T06:46:07;7.80;99.90
19728;DHT22;10015;52.530;13.390;2023-10-19T06:48:33;7.70;99.90
19728;DHT22;10015;52.530;13.390;2023-10-19T06:50:59;7.60;99.90
19728;DHT22;10015;52.530;13.390;2023-10-19T06:53:26;7.60;99.90
19728;DHT22;10015;52.530;13.390;2023-10-19T06:55:52;7.70;99.90
19728;DHT22;10015;52.530;13.390;2023-10-19T06:58:18;7.60;99.90
19728;DHT22;10015;52.530;13.390;2023-10-19T07:00:47;7.50;99.90
19728;DHT22;10015;52.530;13.390;2023-10-19T07:03:22;7.50;99.90
19728;DHT22;10015;52.530;13.390;2023-10-19T07:05:54;7.60;99.90
19728;DHT22;10015;52.530;13.390;2023-10-19T07:08:20;7.70;99.90
19728;DHT22;10015;52.530;13.390;2023-10-19T07:10:47;7.70;99.90
19728;DHT22;10015;52.530;13.390;2023-10-19T07:13:15;7.60;99.90
19728;DHT22;10015;52.530;13.390;2023-10-19T07:15:44;7.80;99.90
19728;DHT22;10015;52.530;13.390;2023-10-19T07:18:10;7.80;99.90
19728;DHT22;10015;52.530;13.390;2023-10-19T07:20:37;7.90;99.90
19728;DHT22;10015;52.530;13.390;2023-10-19T07:23:04;7.80;99.90
19728;DHT22;10015;52.530;13.390;2023-10-19T07:25:48;7.80;99.90
19728;DHT22;10015;52.530;13.390;2023-10-19T07:28:18;7.80;99.90
19728;DHT22;10015;52.530;13.390;2023-10-19T07:30:45;7.80;99.90
19728;DHT22;10015;52.530;13.390;2023-10-19T07:33:17;7.90;99.90
19728;DHT22;10015;52.530;13.390;2023-10-19T07:35:44;8.00;99.90
19728;DHT22;10015;52.530;13.390;2023-10-19T07:38:16;8.00;99.90
19728;DHT22;10015;52.530;13.390;2023-10-19T07:40:43;8.00;99.90
19728;DHT22;10015;52.530;13.390;2023-10-19T07:43:09;8.20;99.90
19728;DHT22;10015;52.530;13.390;2023-10-19T07:45:36;8.10;99.90
19728;DHT22;10015;52.530;13.390;2023-10-19T07:48:02;8.20;99.90
19728;DHT22;10015;52.530;13.390;2023-10-19T07:50:39;8.20;99.90
19728;DHT22;10015;52.530;13.390;2023-10-19T07:53:08;8.20;99.90
19728;DHT22;10015;52.530;13.390;2023-10-19T07:55:37;8.20;99.90
19728;DHT22;10015;52.530;13.390;2023-10-19T07:58:05;8.20;99.90
19728;DHT22;10015;52.530;13.390;2023-10-19T08:00:32;8.20;99.90
19728;DHT22;10015;52.530;13.390;2023-10-19T08:03:05;8.20;99.90
19728;DHT22;10015;52.530;13.390;2023-10-19T08:05:33;8.20;99.90
19728;DHT22;10015;52.530;13.390;2023-10-19T08:08:02;8.20;99.90
19728;DHT22;10015;52.530;13.390;2023-10-19T08:10:30;8.20;99.90
19728;DHT22;10015;52.530;13.390;2023-10-19T08:12:56;8.10;99.90
19728;DHT22;10015;52.530;13.390;2023-10-19T08:15:23;8.10;99.90
19728;DHT22;10015;52.530;13.390;2023-10-19T08:17:51;8.30;99.90
19728;DHT22;10015;52.530;13.390;2023-10-19T08:20:19;8.20;99.90
19728;DHT22;10015;52.530;13.390;2023-10-19T08:22:59;8.10;99.90
19728;DHT22;10015;52.530;13.390;2023-10-19T08:25:27;8.20;99.90
19728;DHT22;10015;52.530;13.390;2023-10-19T08:27:54;8.40;99.90
19728;DHT22;10015;52.530;13.390;2023-10-19T08:30:23;8.40;99.90
19728;DHT22;10015;52.530;13.390;2023-10-19T08:32:51;8.20;99.90
19728;DHT22;10015;52.530;13.390;2023-10-19T08:35:19;8.30;99.90
19728;DHT22;10015;52.530;13.390;2023-10-19T08:37:51;8.40;99.90
19728;DHT22;10015;52.530;13.390;2023-10-19T08:40:17;8.30;99.90
19728;DHT22;10015;52.530;13.390;2023-10-19T08:42:45;8.20;99.90
19728;DHT22;10015;52.530;13.390;2023-10-19T08:45:12;8.30;99.90
19728;DHT22;10015;52.530;13.390;2023-10-19T08:47:55;8.30;99.90
19728;DHT22;10015;52.530;13.390;2023-10-19T08:50:27;8.40;99.90
19728;DHT22;10015;52.530;13.390;2023-10-19T08:52:57;8.40;99.90
19728;DHT22;10015;52.530;13.390;2023-10-19T08:55:24;8.50;99.90
19728;DHT22;10015;52.530;13.390;2023-10-19T08:57:51;8.60;99.90
19728;DHT22;10015;52.530;13.390;2023-10-19T09:00:19;8.50;99.90
19728;DHT22;10015;52.530;13.390;2023-10-19T09:02:46;8.50;99.90
19728;DHT22;10015;52.530;13.390;2023-10-19T09:05:13;8.30;99.90
19728;DHT22;10015;52.530;13.390;2023-10-19T09:07:49;8.30;99.90
19728;DHT22;10015;52.530;13.390;2023-10-19T09:10:23;8.20;99.90
19728;DHT22;10015;52.530;13.390;2023-10-19T09:13:02;8.10;99.90
19728;DHT22;10015;52.530;13.390;2023-10-19T09:15:29;8.20;99.90
19728;DHT22;10015;52.530;13.390;2023-10-19T09:18:11;8.30;99.90
19728;DHT22;10015;52.530;13.390;2023-10-19T09:20:39;8.40;99.90
19728;DHT22;10015;52.530;13.390;2023-10-19T09:23:07;8.50;99.90
19728;DHT22;10015;52.530;13.390;2023-10-19T09:25:33;8.50;99.90
19728;DHT22;10015;52.530;13.390;2023-10-19T09:28:01;8.60;99.90
19728;DHT22;10015;52.530;13.390;2023-10-19T09:30:31;8.70;99.90
19728;DHT22;10015;52.530;13.390;2023-10-19T09:32:58;8.70;99.90
19728;DHT22;10015;52.530;13.390;2023-10-19T09:35:31;8.70;99.90
19728;DHT22;10015;52.530;13.390;2023-10-19T09:37:57;8.80;99.90
19728;DHT22;10015;52.530;13.390;2023-10-19T09:40:26;8.70;99.90
19728;DHT22;10015;52.530;13.390;2023-10-19T09:42:57;8.70;99.90
19728;DHT22;10015;52.530;13.390;2023-10-19T09:45:27;8.60;99.90
19728;DHT22;10015;52.530;13.390;2023-10-19T09:47:56;8.60;99.90
19728;DHT22;10015;52.530;13.390;2023-10-19T09:54:42;8.80;99.90
19728;DHT22;10015;52.530;13.390;2023-10-19T09:57:18;8.70;99.90
19728;DHT22;10015;52.530;13.390;2023-10-19T09:59:49;8.80;99.90
19728;DHT22;10015;52.530;13.390;2023-10-19T10:02:16;8.80;99.90
19728;DHT22;10015;52.530;13.390;2023-10-19T10:04:47;8.90;99.90
19728;DHT22;10015;52.530;13.390;2023-10-19T10:07:15;8.90;99.90
19728;DHT22;10015;52.530;13.390;2023-10-19T10:09:42;8.80;99.90
19728;DHT22;10015;52.530;13.390;2023-10-19T10:12:20;8.80;99.90
19728;DHT22;10015;52.530;13.390;2023-10-19T10:15:06;8.80;99.90
19728;DHT22;10015;52.530;13.390;2023-10-19T10:17:38;8.80;99.90
19728;DHT22;10015;52.530;13.390;2023-10-19T10:23:29;8.80;99.90
19728;DHT22;10015;52.530;13.390;2023-10-19T10:25:59;8.90;99.90
19728;DHT22;10015;52.530;13.390;2023-10-19T10:28:26;9.00;99.90
19728;DHT22;10015;52.530;13.390;2023-10-19T10:31:11;9.10;99.90
19728;DHT22;10015;52.530;13.390;2023-10-19T10:33:49;9.10;99.90
19728;DHT22;10015;52.530;13.390;2023-10-19T10:36:18;9.20;99.90
19728;DHT22;10015;52.530;13.390;2023-10-19T10:38:46;9.20;99.90
19728;DHT22;10015;52.530;13.390;2023-10-19T10:41:12;9.30;99.90
19728;DHT22;10015;52.530;13.390;2023-10-19T10:43:51;9.20;99.90
19728;DHT22;10015;52.530;13.390;2023-10-19T10:46:25;9.20;99.90
19728;DHT22;10015;52.530;13.390;2023-10-19T10:48:51;9.40;99.90
19728;DHT22;10015;52.530;13.390;2023-10-19T10:51:22;9.40;99.90
19728;DHT22;10015;52.530;13.390;2023-10-19T10:53:50;9.40;99.90
19728;DHT22;10015;52.530;13.390;2023-10-19T10:56:18;9.40;99.90
19728;DHT22;10015;52.530;13.390;2023-10-19T10:58:45;9.40;99.90
19728;DHT22;10015;52.530;13.390;2023-10-19T11:01:11;9.40;99.90
19728;DHT22;10015;52.530;13.390;2023-10-19T11:03:42;9.30;99.90
19728;DHT22;10015;52.530;13.390;2023-10-19T11:06:09;9.40;99.90
19728;DHT22;10015;52.530;13.390;2023-10-19T11:08:36;9.40;99.90
19728;DHT22;10015;52.530;13.390;2023-10-19T11:11:10;9.20;99.90
19728;DHT22;10015;52.530;13.390;2023-10-19T11:13:42;9.20;99.90
19728;DHT22;10015;52.530;13.390;2023-10-19T11:16:09;9.10;99.90
19728;DHT22;10015;52.530;13.390;2023-10-19T11:21:06;9.20;99.90
19728;DHT22;10015;52.530;13.390;2023-10-19T11:23:46;9.10;99.90
19728;DHT22;10015;52.530;13.390;2023-10-19T11:26:15;9.00;99.90
19728;DHT22;10015;52.530;13.390;2023-10-19T11:28:41;9.00;99.90
19728;DHT22;10015;52.530;13.390;2023-10-19T11:31:18;9.10;99.90
19728;DHT22;10015;52.530;13.390;2023-10-19T11:33:45;9.00;99.90
19728;DHT22;10015;52.530;13.390;2023-10-19T11:36:12;9.00;99.90
19728;DHT22;10015;52.530;13.390;2023-10-19T11:38:46;9.10;99.90
19728;DHT22;10015;52.530;13.390;2023-10-19T11:41:13;9.00;99.90
19728;DHT22;10015;52.530;13.390;2023-10-19T11:43:41;9.00;99.90
19728;DHT22;10015;52.530;13.390;2023-10-19T11:46:07;9.00;99.90
19728;DHT22;10015;52.530;13.390;2023-10-19T11:48:34;9.10;99.90
19728;DHT22;10015;52.530;13.390;2023-10-19T11:51:04;9.10;99.90
19728;DHT22;10015;52.530;13.390;2023-10-19T11:53:35;9.00;99.90
19728;DHT22;10015;52.530;13.390;2023-10-19T11:56:10;9.00;99.90
19728;DHT22;10015;52.530;13.390;2023-10-19T11:58:38;8.90;99.90
19728;DHT22;10015;52.530;13.390;2023-10-19T12:01:33;8.90;99.90
19728;DHT22;10015;52.530;13.390;2023-10-19T12:04:02;8.70;99.90
19728;DHT22;10015;52.530;13.390;2023-10-19T12:06:28;8.60;99.90
19728;DHT22;10015;52.530;13.390;2023-10-19T12:08:54;8.70;99.90
19728;DHT22;10015;52.530;13.390;2023-10-19T12:11:22;8.70;99.90
19728;DHT22;10015;52.530;13.390;2023-10-19T12:13:49;8.80;99.90
19728;DHT22;10015;52.530;13.390;2023-10-19T12:16:16;8.80;99.90
19728;DHT22;10015;52.530;13.390;2023-10-19T12:18:43;8.80;99.90
19728;DHT22;10015;52.530;13.390;2023-10-19T12:21:10;8.80;99.90
19728;DHT22;10015;52.530;13.390;2023-10-19T12:23:40;8.90;99.90
19728;DHT22;10015;52.530;13.390;2023-10-19T12:26:06;8.90;99.90
19728;DHT22;10015;52.530;13.390;2023-10-19T12:28:40;9.00;99.90
19728;DHT22;10015;52.530;13.390;2023-10-19T12:31:09;9.00;99.90
19728;DHT22;10015;52.530;13.390;2023-10-19T12:33:39;9.10;99.90
19728;DHT22;10015;52.530;13.390;2023-10-19T12:36:07;9.10;99.90
19728;DHT22;10015;52.530;13.390;2023-10-19T12:39:00;9.00;99.90
19728;DHT22;10015;52.530;13.390;2023-10-19T12:41:26;9.10;99.90
19728;DHT22;10015;52.530;13.390;2023-10-19T12:43:53;9.20;99.90
19728;DHT22;10015;52.530;13.390;2023-10-19T12:46:33;9.20;99.90
19728;DHT22;10015;52.530;13.390;2023-10-19T12:49:04;9.30;99.90
19728;DHT22;10015;52.530;13.390;2023-10-19T12:51:34;9.20;99.90
19728;DHT22;10015;52.530;13.390;2023-10-19T12:54:00;9.20;99.90
19728;DHT22;10015;52.530;13.390;2023-10-19T12:56:29;9.10;99.90
19728;DHT22;10015;52.530;13.390;2023-10-19T12:58:58;9.10;99.90
19728;DHT22;10015;52.530;13.390;2023-10-19T13:01:25;9.20;99.90
19728;DHT22;10015;52.530;13.390;2023-10-19T13:03:53;9.20;99.90
19728;DHT22;10015;52.530;13.390;2023-10-19T13:06:20;9.20;99.90
19728;DHT22;10015;52.530;13.390;2023-10-19T13:08:46;9.20;99.90
19728;DHT22;10015;52.530;13.390;2023-10-19T13:11:12;9.20;99.90
19728;DHT22;10015;52.530;13.390;2023-10-19T13:13:41;9.20;99.90
19728;DHT22;10015;52.530;13.390;2023-10-19T13:16:07;9.20;99.90
19728;DHT22;10015;52.530;13.390;2023-10-19T13:18:35;9.20;99.90
19728;DHT22;10015;52.530;13.390;2023-10-19T13:21:02;9.10;99.90
19728;DHT22;10015;52.530;13.390;2023-10-19T13:23:31;9.10;99.90
19728;DHT22;10015;52.530;13.390;2023-10-19T13:26:02;9.10;99.90
19728;DHT22;10015;52.530;13.390;2023-10-19T13:28:35;9.00;99.90
19728;DHT22;10015;52.530;13.390;2023-10-19T13:31:04;9.10;99.90
19728;DHT22;10015;52.530;13.390;2023-10-19T13:33:30;8.90;99.90
19728;DHT22;10015;52.530;13.390;2023-10-19T13:35:57;8.80;99.90
19728;DHT22;10015;52.530;13.390;2023-10-19T13:38:24;8.80;99.90
19728;DHT22;10015;52.530;13.390;2023-10-19T13:40:50;8.80;99.90
19728;DHT22;10015;52.530;13.390;2023-10-19T13:43:17;8.70;99.90
19728;DHT22;10015;52.530;13.390;2023-10-19T13:46:01;8.70;99.90
19728;DHT22;10015;52.530;13.390;2023-10-19T13:48:27;8.60;99.90
19728;DHT22;10015;52.530;13.390;2023-10-19T13:50:53;8.60;99.90
19728;DHT22;10015;52.530;13.390;2023-10-19T13:53:26;8.60;99.90
19728;DHT22;10015;52.530;13.390;2023-10-19T13:55:53;8.60;99.90
19728;DHT22;10015;52.530;13.390;2023-10-19T13:58:19;8.60;99.90
19728;DHT22;10015;52.530;13.390;2023-10-19T14:00:45;8.60;99.90
19728;DHT22;10015;52.530;13.390;2023-10-19T14:03:12;8.60;99.90
19728;DHT22;10015;52.530;13.390;2023-10-19T14:05:44;8.70;99.90
19728;DHT22;10015;52.530;13.390;2023-10-19T14:08:16;8.80;99.90
19728;DHT22;10015;52.530;13.390;2023-10-19T14:10:42;8.70;99.90
19728;DHT22;10015;52.530;13.390;2023-10-19T14:13:09;8.80;99.90
19728;DHT22;10015;52.530;13.390;2023-10-19T14:15:36;8.80;99.90
19728;DHT22;10015;52.530;13.390;2023-10-19T14:18:02;8.90;99.90
19728;DHT22;10015;52.530;13.390;2023-10-19T14:20:30;8.80;99.90
19728;DHT22;10015;52.530;13.390;2023-10-19T14:23:00;8.90;99.90
19728;DHT22;10015;52.530;13.390;2023-10-19T14:25:28;8.80;99.90
19728;DHT22;10015;52.530;13.390;2023-10-19T14:27:55;8.90;99.90
19728;DHT22;10015;52.530;13.390;2023-10-19T14:30:28;8.80;99.90
19728;DHT22;10015;52.530;13.390;2023-10-19T14:32:54;8.70;99.90
19728;DHT22;10015;52.530;13.390;2023-10-19T14:35:22;8.60;99.90
19728;DHT22;10015;52.530;13.390;2023-10-19T14:37:49;8.70;99.90
19728;DHT22;10015;52.530;13.390;2023-10-19T14:40:23;8.70;99.90
19728;DHT22;10015;52.530;13.390;2023-10-19T14:42:52;8.70;99.90
19728;DHT22;10015;52.530;13.390;2023-10-19T14:45:20;8.70;99.90
19728;DHT22;10015;52.530;13.390;2023-10-19T14:47:48;8.70;99.90
19728;DHT22;10015;52.530;13.390;2023-10-19T14:50:18;8.70;99.90
19728;DHT22;10015;52.530;13.390;2023-10-19T14:52:46;8.60;99.90
19728;DHT22;10015;52.530;13.390;2023-10-19T14:55:13;8.60;99.90
19728;DHT22;10015;52.530;13.390;2023-10-19T14:57:41;8.60;99.90
19728;DHT22;10015;52.530;13.390;2023-10-19T15:00:09;8.60;99.90
19728;DHT22;10015;52.530;13.390;2023-10-19T15:02:57;8.60;99.90
19728;DHT22;10015;52.530;13.390;2023-10-19T15:05:27;8.60;99.90
19728;DHT22;10015;52.530;13.390;2023-10-19T15:07:54;8.60;99.90
19728;DHT22;10015;52.530;13.390;2023-10-19T15:10:24;8.50;99.90
19728;DHT22;10015;52.530;13.390;2023-10-19T15:12:54;8.60;99.90
19728;DHT22;10015;52.530;13.390;2023-10-19T15:15:22;8.50;99.90
19728;DHT22;10015;52.530;13.390;2023-10-19T15:17:48;8.50;99.90
19728;DHT22;10015;52.530;13.390;2023-10-19T15:20:19;8.50;99.90
19728;DHT22;10015;52.530;13.390;2023-10-19T15:22:46;8.50;99.90
19728;DHT22;10015;52.530;13.390;2023-10-19T15:25:13;8.60;99.90
19728;DHT22;10015;52.530;13.390;2023-10-19T15:27:41;8.50;99.90
19728;DHT22;10015;52.530;13.390;2023-10-19T15:30:09;8.50;99.90
19728;DHT22;10015;52.530;13.390;2023-10-19T15:32:38;8.60;99.90
19728;DHT22;10015;52.530;13.390;2023-10-19T15:35:04;8.60;99.90
19728;DHT22;10015;52.530;13.390;2023-10-19T15:37:31;8.50;99.90
19728;DHT22;10015;52.530;13.390;2023-10-19T15:39:57;8.50;99.90
19728;DHT22;10015;52.530;13.390;2023-10-19T15:42:23;8.60;99.90
19728;DHT22;10015;52.530;13.390;2023-10-19T15:44:50;8.60;99.90
19728;DHT22;10015;52.530;13.390;2023-10-19T15:47:17;8.50;99.90
19728;DHT22;10015;52.530;13.390;2023-10-19T15:49:49;8.60;99.90
19728;DHT22;10015;52.530;13.390;2023-10-19T15:52:19;8.50;99.90
19728;DHT22;10015;52.530;13.390;2023-10-19T15:54:49;8.60;99.90